createdAt,value
2022-11-17T00:02:22.000Z,98992.66
2022-11-17T00:07:24.308Z,99009.31
2022-11-17T00:12:45.147Z,99002.81
2022-11-17T00:17:49.010Z,99002.72
2022-11-17T00:22:51.145Z,98992.47
2022-11-17T00:27:53.343Z,98985.69
2022-11-17T00:33:14.162Z,98968.16
2022-11-17T00:38:16.360Z,98947.13
2022-11-17T00:43:18.493Z,98895.81
2022-11-17T00:48:20.651Z,98969.19
2022-11-17T00:53:22.783Z,98851.97
2022-11-17T00:58:24.822Z,98909.50
2022-11-17T01:03:26.857Z,98867.28
2022-11-17T01:08:28.865Z,98954.38
2022-11-17T01:13:30.961Z,98892.47
2022-11-17T01:18:33.247Z,98912.88
2022-11-17T01:23:36.546Z,98900.75
2022-11-17T01:28:39.408Z,98834.44
2022-11-17T01:33:41.905Z,98925.47
2022-11-17T01:38:44.261Z,98921.25
2022-11-17T01:43:55.157Z,98837.34
2022-11-17T01:49:25.064Z,98905.28
2022-11-17T01:54:28.472Z,98885.69
2022-11-17T01:59:37.047Z,98877.06
2022-11-17T02:04:47.581Z,98894.16
2022-11-17T02:09:49.872Z,98811.03
2022-11-17T02:14:52.289Z,98894.09
2022-11-17T02:20:17.452Z,98843.47
2022-11-17T02:25:36.760Z,98851.53
2022-11-17T02:30:47.623Z,98884.88
2022-11-17T02:36:03.592Z,98874.63
2022-11-17T02:41:37.725Z,98831.81
2022-11-17T02:46:47.892Z,98847.63
2022-11-17T02:51:52.171Z,98858.25
2022-11-17T02:56:54.172Z,98856.50
2022-11-17T03:01:59.539Z,98848.84
2022-11-17T03:07:35.685Z,98848.16
2022-11-17T03:12:46.918Z,98848.97
2022-11-17T03:18:23.266Z,98840.50
2022-11-17T03:23:33.432Z,98788.78
2022-11-17T03:28:36.716Z,98842.91
2022-11-17T03:33:39.608Z,98789.47
2022-11-17T03:38:46.930Z,98740.91
2022-11-17T03:43:52.010Z,98826.75
2022-11-17T03:48:55.933Z,98747.97
2022-11-17T03:53:58.061Z,98831.88
2022-11-17T03:59:08.666Z,98801.63
2022-11-17T04:04:18.622Z,98769.97
2022-11-17T04:09:24.378Z,98751.41
2022-11-17T04:14:45.165Z,98813.81
2022-11-17T04:19:48.409Z,98764.91
2022-11-17T04:24:50.511Z,98777.47
2022-11-17T04:29:52.633Z,98802.91
2022-11-17T04:34:54.696Z,98688.34
2022-11-17T04:39:56.727Z,98780.97
2022-11-17T04:44:58.806Z,98739.94
2022-11-17T04:50:01.300Z,98814.81
2022-11-17T04:55:05.319Z,98759.97
2022-11-17T05:00:08.151Z,98804.66
2022-11-17T05:05:10.209Z,98688.31
2022-11-17T05:10:14.076Z,98799.53
2022-11-17T05:15:36.102Z,98797.03
2022-11-17T05:20:38.121Z,98740.78
2022-11-17T05:25:40.228Z,98802.16
2022-11-17T05:30:42.939Z,98800.44
2022-11-17T05:35:45.039Z,98803.91
2022-11-17T05:40:47.092Z,98803.91
2022-11-17T05:45:49.269Z,98797.06
2022-11-17T05:50:57.699Z,98769.84
2022-11-17T05:56:09.423Z,98777.75
2022-11-17T06:01:13.902Z,98796.09
2022-11-17T06:06:34.347Z,98784.03
2022-11-17T06:11:36.435Z,98683.44
2022-11-17T06:16:42.073Z,98774.34
2022-11-17T06:22:10.708Z,98662.59
2022-11-17T06:27:06.225Z,98785.22
2022-11-17T06:32:08.226Z,98788.72
2022-11-17T06:37:11.574Z,98761.63
2022-11-17T06:42:13.604Z,98783.75
2022-11-17T06:47:15.625Z,98757.75
2022-11-17T06:52:17.722Z,98741.91
2022-11-17T06:57:19.741Z,98782.28
2022-11-17T07:02:21.710Z,98779.00
2022-11-17T07:07:36.677Z,98771.38
2022-11-17T07:12:38.771Z,98673.47
2022-11-17T07:17:40.782Z,98771.53
2022-11-17T07:22:43.068Z,98777.59
2022-11-17T07:27:45.105Z,98772.63
2022-11-17T07:32:53.390Z,98774.47
2022-11-17T07:37:58.497Z,98778.91
2022-11-17T07:43:01.293Z,98767.38
2022-11-17T07:48:06.470Z,98792.72
2022-11-17T07:53:08.536Z,98766.69
2022-11-17T07:58:10.528Z,98729.03
2022-11-17T08:03:12.710Z,98746.66
2022-11-17T08:08:14.783Z,98733.63
2022-11-17T08:13:16.961Z,98782.78
2022-11-17T08:18:19.156Z,98771.75
2022-11-17T08:23:21.401Z,98769.91
2022-11-17T08:28:23.625Z,98726.25
2022-11-17T08:33:25.767Z,98747.19
2022-11-17T08:38:31.136Z,98771.59
2022-11-17T08:43:34.084Z,98791.63
2022-11-17T08:48:36.600Z,98711.31
2022-11-17T08:53:38.975Z,98720.19
2022-11-17T08:58:42.946Z,98784.06
2022-11-17T09:03:46.574Z,98784.88
2022-11-17T09:08:49.127Z,98781.47
2022-11-17T09:13:51.436Z,98732.59
2022-11-17T09:18:58.441Z,98778.25
2022-11-17T09:24:00.572Z,98724.19
2022-11-17T09:29:04.262Z,98775.88
2022-11-17T09:34:06.712Z,98747.13
2022-11-17T09:39:09.200Z,98666.03
2022-11-17T09:44:11.327Z,98764.03
2022-11-17T09:49:44.060Z,98768.53
2022-11-17T09:54:56.534Z,98769.34
2022-11-17T10:00:06.055Z,98763.34
2022-11-17T10:05:25.486Z,98730.47
2022-11-17T10:10:45.291Z,98749.94
2022-11-17T10:15:49.721Z,98761.78
2022-11-17T10:20:51.861Z,98761.81
2022-11-17T10:25:58.595Z,98774.94
2022-11-17T10:31:15.737Z,98781.69
2022-11-17T10:36:24.536Z,98778.25
2022-11-17T10:41:40.481Z,98774.63
2022-11-17T10:47:04.379Z,98777.31
2022-11-17T10:52:15.693Z,98779.75
2022-11-17T10:57:23.360Z,98728.09
2022-11-17T11:02:33.881Z,98784.75
2022-11-17T11:07:36.518Z,98665.69
2022-11-17T11:13:08.017Z,98784.75
2022-11-17T11:18:17.647Z,98792.25
2022-11-17T11:23:44.099Z,98791.50
2022-11-17T11:29:17.493Z,98715.53
2022-11-17T11:34:49.720Z,98798.16
2022-11-17T11:40:15.720Z,98804.03
2022-11-17T11:45:27.034Z,98801.97
2022-11-17T11:50:38.991Z,98805.19
2022-11-17T11:55:47.339Z,98802.59
2022-11-17T12:00:52.702Z,98800.84
2022-11-17T12:06:40.843Z,98809.59
2022-11-17T12:12:01.201Z,98776.97
2022-11-17T12:17:26.455Z,98722.28
2022-11-17T12:22:34.486Z,98808.38
2022-11-17T12:27:36.668Z,98803.22
2022-11-17T12:32:45.028Z,98805.81
2022-11-17T12:37:47.105Z,98761.94
2022-11-17T12:43:17.395Z,98808.19
2022-11-17T12:48:34.524Z,98818.56
2022-11-17T12:54:00.076Z,98802.47
2022-11-17T12:59:15.084Z,98752.34
2022-11-17T13:04:21.130Z,98814.94
2022-11-17T13:09:26.265Z,98796.88
2022-11-17T13:14:28.481Z,98733.50
2022-11-17T13:19:38.046Z,98784.03
2022-11-17T13:24:42.793Z,98807.31
2022-11-17T13:29:44.856Z,98825.63
2022-11-17T13:35:06.215Z,98825.56
2022-11-17T13:40:22.396Z,98806.81
2022-11-17T13:45:24.783Z,98788.22
2022-11-17T13:50:27.006Z,98842.91
2022-11-17T13:55:29.801Z,98798.19
2022-11-17T14:00:32.777Z,98811.81
2022-11-17T14:05:35.001Z,98809.06
2022-11-17T14:10:38.869Z,98844.13
2022-11-17T14:15:42.667Z,98842.31
2022-11-17T14:20:44.894Z,98841.38
2022-11-17T14:25:51.666Z,98848.84
2022-11-17T14:30:55.610Z,98852.78
2022-11-17T14:35:59.729Z,98821.94
2022-11-17T14:41:01.931Z,98778.72
2022-11-17T14:46:04.187Z,98847.72
2022-11-17T14:51:06.519Z,98842.06
2022-11-17T14:56:09.647Z,98835.38
2022-11-17T15:01:16.468Z,98848.47
2022-11-17T15:06:20.325Z,98785.09
2022-11-17T15:11:23.846Z,98851.56
2022-11-17T15:16:26.088Z,98846.03
2022-11-17T15:21:28.277Z,98773.19
2022-11-17T15:26:30.483Z,98856.44
2022-11-17T15:31:32.629Z,98836.53
2022-11-17T15:36:34.785Z,98860.97
2022-11-17T15:41:37.211Z,98857.38
2022-11-17T15:46:44.316Z,98859.78
2022-11-17T15:51:49.377Z,98840.38
2022-11-17T15:56:52.319Z,98823.56
2022-11-17T16:01:54.545Z,98857.34
2022-11-17T16:06:56.760Z,98870.63
2022-11-17T16:11:59.193Z,98778.81
2022-11-17T16:17:01.591Z,98767.91
2022-11-17T16:22:03.836Z,98803.00
2022-11-17T16:27:06.133Z,98828.03
2022-11-17T16:32:08.689Z,98780.78
2022-11-17T16:37:10.881Z,98838.72
2022-11-17T16:42:13.042Z,98788.38
2022-11-17T16:47:15.247Z,98748.78
2022-11-17T16:52:17.428Z,98826.97
2022-11-17T16:57:19.620Z,98789.06
2022-11-17T17:02:21.940Z,98830.25
2022-11-17T17:07:24.286Z,98752.50
2022-11-17T17:12:27.643Z,98795.28
2022-11-17T17:17:29.831Z,98765.38
2022-11-17T17:22:32.015Z,98785.72
2022-11-17T17:27:34.277Z,98761.69
2022-11-17T17:32:37.513Z,98826.19
2022-11-17T17:37:39.710Z,98821.88
2022-11-17T17:42:41.990Z,98813.31
2022-11-17T17:47:44.140Z,98816.75
2022-11-17T17:52:46.335Z,98813.25
2022-11-17T17:57:48.474Z,98809.75
2022-11-17T18:02:50.793Z,98715.75
2022-11-17T18:07:53.182Z,98745.53
2022-11-17T18:12:55.398Z,98819.81
2022-11-17T18:17:57.584Z,98802.28
2022-11-17T18:22:59.828Z,98762.31
2022-11-17T18:28:02.371Z,98788.81
2022-11-17T18:33:04.768Z,98757.53
2022-11-17T18:38:07.105Z,98820.06
2022-11-17T18:43:09.353Z,98778.97
2022-11-17T18:48:13.701Z,98720.38
2022-11-17T18:53:15.913Z,98790.47
2022-11-17T18:58:18.058Z,98722.19
2022-11-17T19:03:20.266Z,98808.72
2022-11-17T19:08:23.109Z,98757.84
2022-11-17T19:13:25.888Z,98789.28
2022-11-17T19:18:28.062Z,98809.13
2022-11-17T19:23:32.648Z,98804.69
2022-11-17T19:28:35.519Z,98799.25
2022-11-17T19:33:39.210Z,98766.38
2022-11-17T19:38:43.286Z,98797.22
2022-11-17T19:43:45.803Z,98785.59
2022-11-17T19:48:48.191Z,98799.47
2022-11-17T19:53:52.562Z,98790.91
2022-11-17T19:58:55.848Z,98775.00
2022-11-17T20:04:00.331Z,98778.84
2022-11-17T20:09:07.150Z,98725.63
2022-11-17T20:14:09.572Z,98787.00
2022-11-17T20:19:12.436Z,98709.22
2022-11-17T20:24:14.574Z,98780.19
2022-11-17T20:29:16.987Z,98688.34
2022-11-17T20:34:19.862Z,98777.47
2022-11-17T20:39:22.127Z,98731.38
2022-11-17T20:44:24.335Z,98774.59
2022-11-17T20:49:28.391Z,98770.41
2022-11-17T20:54:30.659Z,98757.59
2022-11-17T20:59:32.799Z,98724.94
2022-11-17T21:04:34.975Z,98747.78
2022-11-17T21:09:38.026Z,98726.28
2022-11-17T21:14:43.265Z,98744.44
2022-11-17T21:19:45.326Z,98706.75
2022-11-17T21:24:47.563Z,98748.66
2022-11-17T21:29:49.846Z,98736.00
2022-11-17T21:34:52.023Z,98739.47
2022-11-17T21:39:54.149Z,98738.44
2022-11-17T21:44:56.235Z,98745.22
2022-11-17T21:49:58.342Z,98690.81
2022-11-17T21:55:00.410Z,98666.22
2022-11-17T22:00:02.544Z,98686.03
2022-11-17T22:05:07.121Z,98645.22
2022-11-17T22:10:09.613Z,98688.66
2022-11-17T22:15:11.969Z,98728.19
2022-11-17T22:20:14.153Z,98639.91
2022-11-17T22:25:42.938Z,98594.16
2022-11-17T22:30:39.169Z,98645.94
2022-11-17T22:35:41.336Z,98724.06
2022-11-17T22:40:43.797Z,98637.25
2022-11-17T22:45:45.942Z,98711.94
2022-11-17T22:50:48.221Z,98691.38
2022-11-17T22:55:50.430Z,98670.13
2022-11-17T23:00:53.347Z,98716.75
2022-11-17T23:05:55.507Z,98635.38
2022-11-17T23:11:36.005Z,98705.47
2022-11-17T23:16:38.310Z,98712.84
2022-11-17T23:21:40.931Z,98705.34
2022-11-17T23:26:43.241Z,98700.97
2022-11-17T23:31:45.420Z,98703.38
2022-11-17T23:36:47.785Z,98701.69
2022-11-17T23:41:50.003Z,98692.28
2022-11-17T23:46:52.292Z,98687.16
2022-11-17T23:51:54.492Z,98662.63
2022-11-17T23:56:56.679Z,98672.88
